sensor_id;sensor_type;location;lat;lon;timestamp;P1;durP1;ratioP1;P2;durP2;ratioP2
53875;SDS011;39789;53.216;5.624;2023-04-01T00:00:52;13.73;;;8.23;;
53875;SDS011;39789;53.216;5.624;2023-04-01T00:03:19;10.85;;;7.70;;
53875;SDS011;39789;53.216;5.624;2023-04-01T00:05:45;12.43;;;7.65;;
53875;SDS011;39789;53.216;5.624;2023-04-01T00:08:11;17.15;;;8.25;;
53875;SDS011;39789;53.216;5.624;2023-04-01T00:10:37;11.10;;;8.43;;
53875;SDS011;39789;53.216;5.624;2023-04-01T00:13:03;14.20;;;8.40;;
53875;SDS011;39789;53.216;5.624;2023-04-01T00:15:28;14.52;;;8.48;;
53875;SDS011;39789;53.216;5.624;2023-04-01T00:17:54;12.98;;;8.93;;
53875;SDS011;39789;53.216;5.624;2023-04-01T00:20:20;16.65;;;8.93;;
53875;SDS011;39789;53.216;5.624;2023-04-01T00:22:45;14.68;;;8.90;;
53875;SDS011;39789;53.216;5.624;2023-04-01T00:25:11;10.85;;;8.15;;
53875;SDS011;39789;53.216;5.624;2023-04-01T00:27:37;13.63;;;8.50;;
53875;SDS011;39789;53.216;5.624;2023-04-01T00:30:02;18.83;;;9.20;;
53875;SDS011;39789;53.216;5.624;2023-04-01T00:32:28;12.93;;;8.85;;
53875;SDS011;39789;53.216;5.624;2023-04-01T00:34:55;14.90;;;8.77;;
53875;SDS011;39789;53.216;5.624;2023-04-01T00:37:21;13.45;;;9.27;;
53875;SDS011;39789;53.216;5.624;2023-04-01T00:39:47;15.38;;;10.18;;
53875;SDS011;39789;53.216;5.624;2023-04-01T00:42:13;12.10;;;9.05;;
53875;SDS011;39789;53.216;5.624;2023-04-01T00:44:39;15.40;;;10.07;;
53875;SDS011;39789;53.216;5.624;2023-04-01T00:47:05;16.00;;;9.95;;
53875;SDS011;39789;53.216;5.624;2023-04-01T00:49:33;13.15;;;8.95;;
53875;SDS011;39789;53.216;5.624;2023-04-01T00:52:03;13.52;;;10.57;;
53875;SDS011;39789;53.216;5.624;2023-04-01T00:54:31;13.63;;;10.00;;
53875;SDS011;39789;53.216;5.624;2023-04-01T00:59:43;14.35;;;10.48;;
53875;SDS011;39789;53.216;5.624;2023-04-01T01:02:13;14.38;;;10.10;;
53875;SDS011;39789;53.216;5.624;2023-04-01T01:04:39;15.38;;;10.02;;
53875;SDS011;39789;53.216;5.624;2023-04-01T01:07:09;17.13;;;11.18;;
53875;SDS011;39789;53.216;5.624;2023-04-01T01:15:21;15.68;;;10.77;;
53875;SDS011;39789;53.216;5.624;2023-04-01T01:23:53;16.42;;;10.73;;
53875;SDS011;39789;53.216;5.624;2023-04-01T01:34:31;12.68;;;9.63;;
53875;SDS011;39789;53.216;5.624;2023-04-01T01:37:13;14.35;;;10.35;;
53875;SDS011;39789;53.216;5.624;2023-04-01T01:39:41;13.80;;;10.63;;
53875;SDS011;39789;53.216;5.624;2023-04-01T01:42:12;15.48;;;10.60;;
53875;SDS011;39789;53.216;5.624;2023-04-01T01:44:40;14.13;;;10.55;;
53875;SDS011;39789;53.216;5.624;2023-04-01T01:47:09;15.75;;;10.85;;
53875;SDS011;39789;53.216;5.624;2023-04-01T01:49:35;12.65;;;9.85;;
53875;SDS011;39789;53.216;5.624;2023-04-01T01:52:01;12.50;;;9.95;;
53875;SDS011;39789;53.216;5.624;2023-04-01T01:54:28;14.32;;;11.18;;
53875;SDS011;39789;53.216;5.624;2023-04-01T01:57:01;13.90;;;10.63;;
53875;SDS011;39789;53.216;5.624;2023-04-01T01:59:31;15.02;;;10.07;;
53875;SDS011;39789;53.216;5.624;2023-04-01T02:02:00;16.35;;;10.90;;
53875;SDS011;39789;53.216;5.624;2023-04-01T02:04:33;14.95;;;10.80;;
53875;SDS011;39789;53.216;5.624;2023-04-01T02:07:02;15.75;;;10.95;;
53875;SDS011;39789;53.216;5.624;2023-04-01T02:09:32;14.13;;;10.63;;
53875;SDS011;39789;53.216;5.624;2023-04-01T02:12:00;14.13;;;10.75;;
53875;SDS011;39789;53.216;5.624;2023-04-01T02:14:30;16.88;;;11.75;;
53875;SDS011;39789;53.216;5.624;2023-04-01T02:17:17;15.25;;;10.82;;
53875;SDS011;39789;53.216;5.624;2023-04-01T02:22:37;15.60;;;11.40;;
53875;SDS011;39789;53.216;5.624;2023-04-01T02:25:14;18.80;;;12.65;;
53875;SDS011;39789;53.216;5.624;2023-04-01T02:27:43;18.23;;;12.73;;
53875;SDS011;39789;53.216;5.624;2023-04-01T02:30:11;16.88;;;11.68;;
53875;SDS011;39789;53.216;5.624;2023-04-01T02:32:38;17.23;;;12.35;;
53875;SDS011;39789;53.216;5.624;2023-04-01T02:35:05;19.02;;;12.55;;
53875;SDS011;39789;53.216;5.624;2023-04-01T02:37:35;20.45;;;14.93;;
53875;SDS011;39789;53.216;5.624;2023-04-01T02:40:02;23.40;;;14.63;;
53875;SDS011;39789;53.216;5.624;2023-04-01T02:42:29;20.80;;;14.05;;
53875;SDS011;39789;53.216;5.624;2023-04-01T02:44:55;19.52;;;13.52;;
53875;SDS011;39789;53.216;5.624;2023-04-01T02:47:21;20.90;;;14.30;;
53875;SDS011;39789;53.216;5.624;2023-04-01T02:49:46;21.52;;;14.75;;
53875;SDS011;39789;53.216;5.624;2023-04-01T02:52:12;20.42;;;13.00;;
53875;SDS011;39789;53.216;5.624;2023-04-01T02:54:37;19.20;;;13.27;;
53875;SDS011;39789;53.216;5.624;2023-04-01T02:57:03;19.90;;;14.48;;
53875;SDS011;39789;53.216;5.624;2023-04-01T02:59:29;20.17;;;13.60;;
53875;SDS011;39789;53.216;5.624;2023-04-01T03:01:54;22.67;;;13.38;;
53875;SDS011;39789;53.216;5.624;2023-04-01T03:04:20;19.70;;;12.50;;
53875;SDS011;39789;53.216;5.624;2023-04-01T03:06:45;22.38;;;14.52;;
53875;SDS011;39789;53.216;5.624;2023-04-01T03:09:11;19.95;;;13.80;;
53875;SDS011;39789;53.216;5.624;2023-04-01T03:11:36;19.63;;;13.15;;
53875;SDS011;39789;53.216;5.624;2023-04-01T03:14:02;20.63;;;13.68;;
53875;SDS011;39789;53.216;5.624;2023-04-01T03:16:27;21.27;;;13.00;;
53875;SDS011;39789;53.216;5.624;2023-04-01T03:18:53;17.50;;;12.05;;
53875;SDS011;39789;53.216;5.624;2023-04-01T03:21:22;19.98;;;13.13;;
53875;SDS011;39789;53.216;5.624;2023-04-01T03:23:48;18.17;;;13.35;;
53875;SDS011;39789;53.216;5.624;2023-04-01T03:26:15;18.83;;;12.77;;
53875;SDS011;39789;53.216;5.624;2023-04-01T03:28:41;19.35;;;12.63;;
53875;SDS011;39789;53.216;5.624;2023-04-01T03:31:07;17.10;;;12.23;;
53875;SDS011;39789;53.216;5.624;2023-04-01T03:33:32;18.83;;;12.40;;
53875;SDS011;39789;53.216;5.624;2023-04-01T03:35:58;18.75;;;13.15;;
53875;SDS011;39789;53.216;5.624;2023-04-01T03:38:24;20.55;;;13.35;;
53875;SDS011;39789;53.216;5.624;2023-04-01T03:40:49;18.40;;;12.63;;
53875;SDS011;39789;53.216;5.624;2023-04-01T03:43:15;17.02;;;12.30;;
53875;SDS011;39789;53.216;5.624;2023-04-01T03:45:45;19.08;;;12.07;;
53875;SDS011;39789;53.216;5.624;2023-04-01T03:48:12;17.27;;;12.32;;
53875;SDS011;39789;53.216;5.624;2023-04-01T03:50:38;16.80;;;12.43;;
53875;SDS011;39789;53.216;5.624;2023-04-01T03:53:03;16.83;;;12.25;;
53875;SDS011;39789;53.216;5.624;2023-04-01T03:55:29;16.00;;;11.63;;
53875;SDS011;39789;53.216;5.624;2023-04-01T03:57:55;17.42;;;13.20;;
53875;SDS011;39789;53.216;5.624;2023-04-01T04:00:20;18.02;;;12.13;;
53875;SDS011;39789;53.216;5.624;2023-04-01T04:02:46;18.45;;;12.77;;
53875;SDS011;39789;53.216;5.624;2023-04-01T04:05:13;17.50;;;11.77;;
53875;SDS011;39789;53.216;5.624;2023-04-01T04:07:40;15.84;;;10.50;;
53875;SDS011;39789;53.216;5.624;2023-04-01T04:10:05;17.30;;;11.27;;
53875;SDS011;39789;53.216;5.624;2023-04-01T04:12:31;15.00;;;9.90;;
53875;SDS011;39789;53.216;5.624;2023-04-01T04:14:57;14.80;;;10.15;;
53875;SDS011;39789;53.216;5.624;2023-04-01T04:17:23;16.08;;;10.38;;
53875;SDS011;39789;53.216;5.624;2023-04-01T04:19:48;16.50;;;10.75;;
53875;SDS011;39789;53.216;5.624;2023-04-01T04:22:14;18.40;;;12.40;;
53875;SDS011;39789;53.216;5.624;2023-04-01T04:24:40;21.25;;;11.80;;
53875;SDS011;39789;53.216;5.624;2023-04-01T04:27:05;21.27;;;13.73;;
53875;SDS011;39789;53.216;5.624;2023-04-01T04:29:31;21.10;;;14.18;;
53875;SDS011;39789;53.216;5.624;2023-04-01T04:31:56;21.02;;;14.23;;
53875;SDS011;39789;53.216;5.624;2023-04-01T04:34:22;21.80;;;14.57;;
53875;SDS011;39789;53.216;5.624;2023-04-01T04:36:48;25.85;;;15.93;;
53875;SDS011;39789;53.216;5.624;2023-04-01T04:39:14;23.60;;;16.33;;
53875;SDS011;39789;53.216;5.624;2023-04-01T04:41:40;24.95;;;15.43;;
53875;SDS011;39789;53.216;5.624;2023-04-01T04:44:06;27.08;;;15.73;;
53875;SDS011;39789;53.216;5.624;2023-04-01T04:46:31;23.52;;;15.27;;
53875;SDS011;39789;53.216;5.624;2023-04-01T04:48:57;22.23;;;15.05;;
53875;SDS011;39789;53.216;5.624;2023-04-01T04:51:23;24.67;;;15.20;;
53875;SDS011;39789;53.216;5.624;2023-04-01T04:53:49;22.92;;;15.07;;
53875;SDS011;39789;53.216;5.624;2023-04-01T04:56:18;23.48;;;16.08;;
53875;SDS011;39789;53.216;5.624;2023-04-01T04:58:45;23.25;;;15.82;;
53875;SDS011;39789;53.216;5.624;2023-04-01T05:01:11;28.48;;;17.65;;
53875;SDS011;39789;53.216;5.624;2023-04-01T05:03:39;26.40;;;16.92;;
53875;SDS011;39789;53.216;5.624;2023-04-01T05:06:05;23.38;;;15.45;;
53875;SDS011;39789;53.216;5.624;2023-04-01T05:08:32;25.70;;;16.90;;
53875;SDS011;39789;53.216;5.624;2023-04-01T05:10:59;25.95;;;16.65;;
53875;SDS011;39789;53.216;5.624;2023-04-01T05:13:25;23.77;;;15.85;;
53875;SDS011;39789;53.216;5.624;2023-04-01T05:15:50;25.88;;;16.98;;
53875;SDS011;39789;53.216;5.624;2023-04-01T05:18:16;24.58;;;16.08;;
53875;SDS011;39789;53.216;5.624;2023-04-01T05:20:48;28.85;;;17.42;;
53875;SDS011;39789;53.216;5.624;2023-04-01T05:23:16;24.60;;;16.63;;
53875;SDS011;39789;53.216;5.624;2023-04-01T05:25:42;26.48;;;17.50;;
53875;SDS011;39789;53.216;5.624;2023-04-01T05:28:08;25.27;;;17.10;;
53875;SDS011;39789;53.216;5.624;2023-04-01T05:30:33;28.05;;;18.20;;
53875;SDS011;39789;53.216;5.624;2023-04-01T05:32:59;26.00;;;17.08;;
53875;SDS011;39789;53.216;5.624;2023-04-01T05:35:25;28.67;;;18.52;;
53875;SDS011;39789;53.216;5.624;2023-04-01T05:37:50;27.17;;;16.88;;
53875;SDS011;39789;53.216;5.624;2023-04-01T05:40:16;30.63;;;18.88;;
53875;SDS011;39789;53.216;5.624;2023-04-01T05:42:41;24.98;;;16.45;;
53875;SDS011;39789;53.216;5.624;2023-04-01T05:45:07;27.23;;;16.52;;
53875;SDS011;39789;53.216;5.624;2023-04-01T05:47:33;23.73;;;16.30;;
53875;SDS011;39789;53.216;5.624;2023-04-01T05:49:59;27.95;;;17.33;;
53875;SDS011;39789;53.216;5.624;2023-04-01T05:52:25;23.45;;;16.50;;
53875;SDS011;39789;53.216;5.624;2023-04-01T05:54:50;26.70;;;15.80;;
53875;SDS011;39789;53.216;5.624;2023-04-01T05:57:16;32.60;;;17.70;;
53875;SDS011;39789;53.216;5.624;2023-04-01T05:59:42;31.80;;;19.15;;
53875;SDS011;39789;53.216;5.624;2023-04-01T06:02:08;31.83;;;19.23;;
53875;SDS011;39789;53.216;5.624;2023-04-01T06:04:37;33.55;;;18.30;;
53875;SDS011;39789;53.216;5.624;2023-04-01T06:07:09;39.80;;;19.65;;
53875;SDS011;39789;53.216;5.624;2023-04-01T06:09:36;34.55;;;18.20;;
53875;SDS011;39789;53.216;5.624;2023-04-01T06:12:09;40.25;;;20.08;;
53875;SDS011;39789;53.216;5.624;2023-04-01T06:14:51;35.08;;;17.58;;
53875;SDS011;39789;53.216;5.624;2023-04-01T06:22:43;28.80;;;15.82;;
53875;SDS011;39789;53.216;5.624;2023-04-01T06:37:01;40.97;;;19.30;;
53875;SDS011;39789;53.216;5.624;2023-04-01T06:45:28;30.02;;;16.85;;
53875;SDS011;39789;53.216;5.624;2023-04-01T06:54:04;31.42;;;17.35;;
53875;SDS011;39789;53.216;5.624;2023-04-01T06:56:36;29.65;;;16.13;;
53875;SDS011;39789;53.216;5.624;2023-04-01T06:59:06;31.27;;;16.60;;
53875;SDS011;39789;53.216;5.624;2023-04-01T07:01:41;30.02;;;16.40;;
53875;SDS011;39789;53.216;5.624;2023-04-01T07:04:14;29.27;;;17.30;;
53875;SDS011;39789;53.216;5.624;2023-04-01T07:06:56;33.53;;;18.00;;
53875;SDS011;39789;53.216;5.624;2023-04-01T07:09:40;33.75;;;18.35;;
53875;SDS011;39789;53.216;5.624;2023-04-01T07:12:29;29.42;;;16.75;;
53875;SDS011;39789;53.216;5.624;2023-04-01T07:14:57;30.65;;;17.60;;
53875;SDS011;39789;53.216;5.624;2023-04-01T07:17:27;29.23;;;16.38;;
53875;SDS011;39789;53.216;5.624;2023-04-01T07:22:46;40.25;;;19.50;;
53875;SDS011;39789;53.216;5.624;2023-04-01T07:25:23;46.05;;;21.55;;
53875;SDS011;39789;53.216;5.624;2023-04-01T07:27:53;44.03;;;22.25;;
53875;SDS011;39789;53.216;5.624;2023-04-01T07:30:24;43.88;;;22.52;;
53875;SDS011;39789;53.216;5.624;2023-04-01T07:33:00;41.80;;;21.63;;
53875;SDS011;39789;53.216;5.624;2023-04-01T07:35:36;47.88;;;22.38;;
53875;SDS011;39789;53.216;5.624;2023-04-01T07:43:22;44.95;;;20.83;;
53875;SDS011;39789;53.216;5.624;2023-04-01T07:46:16;45.90;;;22.42;;
53875;SDS011;39789;53.216;5.624;2023-04-01T07:48:48;40.97;;;19.60;;
53875;SDS011;39789;53.216;5.624;2023-04-01T08:02:56;37.15;;;18.98;;
53875;SDS011;39789;53.216;5.624;2023-04-01T08:05:46;35.13;;;17.58;;
53875;SDS011;39789;53.216;5.624;2023-04-01T08:11:10;35.80;;;18.48;;
53875;SDS011;39789;53.216;5.624;2023-04-01T08:14:08;38.38;;;16.90;;
53875;SDS011;39789;53.216;5.624;2023-04-01T08:16:45;38.45;;;17.75;;
53875;SDS011;39789;53.216;5.624;2023-04-01T08:22:12;22.20;;;12.57;;
53875;SDS011;39789;53.216;5.624;2023-04-01T08:24:45;25.95;;;11.25;;
53875;SDS011;39789;53.216;5.624;2023-04-01T08:27:25;21.85;;;11.48;;
53875;SDS011;39789;53.216;5.624;2023-04-01T08:30:14;16.88;;;9.88;;
53875;SDS011;39789;53.216;5.624;2023-04-01T08:38:11;17.50;;;6.40;;
53875;SDS011;39789;53.216;5.624;2023-04-01T08:43:35;9.95;;;5.22;;
53875;SDS011;39789;53.216;5.624;2023-04-01T08:46:30;10.75;;;4.97;;
53875;SDS011;39789;53.216;5.624;2023-04-01T08:49:14;10.10;;;3.70;;
53875;SDS011;39789;53.216;5.624;2023-04-01T08:52:07;8.45;;;4.13;;
53875;SDS011;39789;53.216;5.624;2023-04-01T08:57:38;6.75;;;2.85;;
53875;SDS011;39789;53.216;5.624;2023-04-01T09:17:01;8.98;;;3.97;;
53875;SDS011;39789;53.216;5.624;2023-04-01T09:23:26;9.43;;;4.20;;
53875;SDS011;39789;53.216;5.624;2023-04-01T09:25:55;12.68;;;4.07;;
53875;SDS011;39789;53.216;5.624;2023-04-01T09:31:52;7.28;;;3.67;;
53875;SDS011;39789;53.216;5.624;2023-04-01T09:37:36;11.85;;;4.03;;
53875;SDS011;39789;53.216;5.624;2023-04-01T09:43:06;7.82;;;3.33;;
53875;SDS011;39789;53.216;5.624;2023-04-01T09:45:58;3.70;;;2.65;;
53875;SDS011;39789;53.216;5.624;2023-04-01T09:48:39;8.75;;;3.05;;
53875;SDS011;39789;53.216;5.624;2023-04-01T09:56:23;8.43;;;3.97;;
53875;SDS011;39789;53.216;5.624;2023-04-01T10:10:23;8.00;;;3.25;;
53875;SDS011;39789;53.216;5.624;2023-04-01T10:13:15;7.20;;;3.65;;
53875;SDS011;39789;53.216;5.624;2023-04-01T10:24:42;6.20;;;2.85;;
53875;SDS011;39789;53.216;5.624;2023-04-01T10:27:21;6.03;;;3.20;;
53875;SDS011;39789;53.216;5.624;2023-04-01T10:53:31;8.05;;;2.85;;
53875;SDS011;39789;53.216;5.624;2023-04-01T11:18:16;6.63;;;3.00;;
53875;SDS011;39789;53.216;5.624;2023-04-01T11:23:50;6.95;;;3.25;;
53875;SDS011;39789;53.216;5.624;2023-04-01T11:46:35;4.75;;;2.72;;
53875;SDS011;39789;53.216;5.624;2023-04-01T11:49:37;2.53;;;2.30;;
53875;SDS011;39789;53.216;5.624;2023-04-01T11:52:32;5.20;;;2.67;;
53875;SDS011;39789;53.216;5.624;2023-04-01T11:55:19;4.65;;;2.80;;
53875;SDS011;39789;53.216;5.624;2023-04-01T12:00:29;7.47;;;3.33;;
53875;SDS011;39789;53.216;5.624;2023-04-01T12:03:41;7.22;;;3.20;;
53875;SDS011;39789;53.216;5.624;2023-04-01T12:09:08;5.65;;;3.15;;
53875;SDS011;39789;53.216;5.624;2023-04-01T12:12:00;6.20;;;2.45;;
53875;SDS011;39789;53.216;5.624;2023-04-01T12:18:03;5.53;;;2.80;;
53875;SDS011;39789;53.216;5.624;2023-04-01T12:20:50;4.85;;;3.08;;
53875;SDS011;39789;53.216;5.624;2023-04-01T12:35:21;6.63;;;3.30;;
53875;SDS011;39789;53.216;5.624;2023-04-01T12:37:59;3.45;;;2.97;;
53875;SDS011;39789;53.216;5.624;2023-04-01T12:40:47;5.07;;;3.33;;
53875;SDS011;39789;53.216;5.624;2023-04-01T12:49:27;6.07;;;2.80;;
53875;SDS011;39789;53.216;5.624;2023-04-01T12:57:31;10.18;;;2.83;;
53875;SDS011;39789;53.216;5.624;2023-04-01T13:03:05;4.82;;;2.88;;
53875;SDS011;39789;53.216;5.624;2023-04-01T13:08:33;6.22;;;3.17;;
53875;SDS011;39789;53.216;5.624;2023-04-01T13:14:21;5.47;;;3.03;;
53875;SDS011;39789;53.216;5.624;2023-04-01T13:17:11;8.07;;;2.95;;
53875;SDS011;39789;53.216;5.624;2023-04-01T13:19:50;5.43;;;2.33;;
53875;SDS011;39789;53.216;5.624;2023-04-01T13:22:23;5.80;;;3.25;;
53875;SDS011;39789;53.216;5.624;2023-04-01T13:27:51;3.75;;;2.47;;
53875;SDS011;39789;53.216;5.624;2023-04-01T13:30:27;7.43;;;2.97;;
53875;SDS011;39789;53.216;5.624;2023-04-01T13:36:01;5.07;;;2.72;;
53875;SDS011;39789;53.216;5.624;2023-04-01T13:38:43;3.08;;;2.38;;
53875;SDS011;39789;53.216;5.624;2023-04-01T13:46:41;6.40;;;3.35;;
53875;SDS011;39789;53.216;5.624;2023-04-01T13:54:57;4.78;;;3.00;;
53875;SDS011;39789;53.216;5.624;2023-04-01T14:08:51;6.45;;;3.22;;
53875;SDS011;39789;53.216;5.624;2023-04-01T14:14:31;6.22;;;2.97;;
53875;SDS011;39789;53.216;5.624;2023-04-01T14:20:02;3.90;;;3.30;;
53875;SDS011;39789;53.216;5.624;2023-04-01T14:22:53;5.93;;;3.05;;
53875;SDS011;39789;53.216;5.624;2023-04-01T14:33:38;6.53;;;2.88;;
53875;SDS011;39789;53.216;5.624;2023-04-01T14:51:01;9.88;;;4.50;;
53875;SDS011;39789;53.216;5.624;2023-04-01T14:53:43;9.82;;;4.15;;
53875;SDS011;39789;53.216;5.624;2023-04-01T14:59:08;12.30;;;5.10;;
53875;SDS011;39789;53.216;5.624;2023-04-01T15:01:44;9.32;;;4.60;;
53875;SDS011;39789;53.216;5.624;2023-04-01T15:07:42;10.75;;;3.67;;
53875;SDS011;39789;53.216;5.624;2023-04-01T15:13:56;12.48;;;4.55;;
53875;SDS011;39789;53.216;5.624;2023-04-01T15:16:12;11.40;;;4.90;;
53875;SDS011;39789;53.216;5.624;2023-04-01T15:18:58;14.95;;;5.43;;
53875;SDS011;39789;53.216;5.624;2023-04-01T15:21:44;13.68;;;5.82;;
53875;SDS011;39789;53.216;5.624;2023-04-01T15:26:47;13.45;;;5.95;;
53875;SDS011;39789;53.216;5.624;2023-04-01T15:32:46;15.50;;;5.93;;
53875;SDS011;39789;53.216;5.624;2023-04-01T15:41:15;14.88;;;6.50;;
53875;SDS011;39789;53.216;5.624;2023-04-01T15:43:51;13.02;;;5.10;;
53875;SDS011;39789;53.216;5.624;2023-04-01T16:02:43;11.48;;;5.10;;
53875;SDS011;39789;53.216;5.624;2023-04-01T16:08:29;12.07;;;5.68;;
53875;SDS011;39789;53.216;5.624;2023-04-01T16:11:14;13.93;;;6.80;;
53875;SDS011;39789;53.216;5.624;2023-04-01T16:25:44;14.43;;;6.10;;
53875;SDS011;39789;53.216;5.624;2023-04-01T16:36:28;18.48;;;6.68;;
53875;SDS011;39789;53.216;5.624;2023-04-01T16:39:11;21.73;;;6.72;;
53875;SDS011;39789;53.216;5.624;2023-04-01T16:47:35;17.48;;;7.15;;
53875;SDS011;39789;53.216;5.624;2023-04-01T16:50:12;19.23;;;7.53;;
53875;SDS011;39789;53.216;5.624;2023-04-01T16:52:48;16.92;;;7.57;;
53875;SDS011;39789;53.216;5.624;2023-04-01T16:55:20;13.80;;;6.72;;
53875;SDS011;39789;53.216;5.624;2023-04-01T16:57:51;14.95;;;6.80;;
53875;SDS011;39789;53.216;5.624;2023-04-01T17:03:13;16.85;;;6.53;;
53875;SDS011;39789;53.216;5.624;2023-04-01T17:11:31;11.20;;;7.40;;
53875;SDS011;39789;53.216;5.624;2023-04-01T17:19:37;15.32;;;7.85;;
53875;SDS011;39789;53.216;5.624;2023-04-01T17:25:20;14.90;;;7.53;;
53875;SDS011;39789;53.216;5.624;2023-04-01T17:39:15;13.43;;;7.53;;
53875;SDS011;39789;53.216;5.624;2023-04-01T17:41:56;17.58;;;7.97;;
53875;SDS011;39789;53.216;5.624;2023-04-01T17:44:32;15.90;;;7.43;;
53875;SDS011;39789;53.216;5.624;2023-04-01T17:47:27;12.27;;;6.90;;
53875;SDS011;39789;53.216;5.624;2023-04-01T17:50:20;19.90;;;7.07;;
53875;SDS011;39789;53.216;5.624;2023-04-01T17:52:59;14.52;;;6.88;;
53875;SDS011;39789;53.216;5.624;2023-04-01T18:01:09;8.15;;;5.60;;
53875;SDS011;39789;53.216;5.624;2023-04-01T18:06:29;12.77;;;5.97;;
53875;SDS011;39789;53.216;5.624;2023-04-01T18:09:40;9.40;;;5.63;;
53875;SDS011;39789;53.216;5.624;2023-04-01T18:15:31;12.48;;;5.80;;
53875;SDS011;39789;53.216;5.624;2023-04-01T18:20:54;11.27;;;7.07;;
53875;SDS011;39789;53.216;5.624;2023-04-01T18:23:44;14.77;;;7.10;;
53875;SDS011;39789;53.216;5.624;2023-04-01T18:26:30;12.77;;;6.82;;
53875;SDS011;39789;53.216;5.624;2023-04-01T18:29:04;20.00;;;7.00;;
53875;SDS011;39789;53.216;5.624;2023-04-01T18:31:47;16.73;;;7.13;;
53875;SDS011;39789;53.216;5.624;2023-04-01T18:36:58;12.10;;;6.95;;
53875;SDS011;39789;53.216;5.624;2023-04-01T18:39:39;16.33;;;7.13;;
53875;SDS011;39789;53.216;5.624;2023-04-01T18:42:50;10.88;;;6.03;;
53875;SDS011;39789;53.216;5.624;2023-04-01T18:45:21;8.75;;;5.43;;
53875;SDS011;39789;53.216;5.624;2023-04-01T18:47:55;12.82;;;7.05;;
53875;SDS011;39789;53.216;5.624;2023-04-01T18:50:28;17.13;;;6.82;;
53875;SDS011;39789;53.216;5.624;2023-04-01T18:56:06;14.55;;;6.85;;
53875;SDS011;39789;53.216;5.624;2023-04-01T18:58:45;12.07;;;6.57;;
53875;SDS011;39789;53.216;5.624;2023-04-01T19:01:20;10.43;;;6.93;;
53875;SDS011;39789;53.216;5.624;2023-04-01T19:06:51;13.40;;;6.35;;
53875;SDS011;39789;53.216;5.624;2023-04-01T19:09:29;13.88;;;6.85;;
53875;SDS011;39789;53.216;5.624;2023-04-01T19:26:14;11.73;;;6.70;;
53875;SDS011;39789;53.216;5.624;2023-04-01T19:34:55;12.27;;;6.93;;
53875;SDS011;39789;53.216;5.624;2023-04-01T19:51:48;20.08;;;6.85;;
53875;SDS011;39789;53.216;5.624;2023-04-01T19:56:38;12.33;;;7.77;;
53875;SDS011;39789;53.216;5.624;2023-04-01T19:59:30;15.85;;;8.00;;
53875;SDS011;39789;53.216;5.624;2023-04-01T20:04:53;15.68;;;6.82;;
53875;SDS011;39789;53.216;5.624;2023-04-01T20:07:31;12.23;;;6.88;;
53875;SDS011;39789;53.216;5.624;2023-04-01T20:10:07;13.93;;;7.45;;
53875;SDS011;39789;53.216;5.624;2023-04-01T20:12:54;13.27;;;6.63;;
53875;SDS011;39789;53.216;5.624;2023-04-01T20:15:45;14.50;;;6.63;;
53875;SDS011;39789;53.216;5.624;2023-04-01T20:18:32;14.00;;;7.22;;
53875;SDS011;39789;53.216;5.624;2023-04-01T20:21:21;12.30;;;6.35;;
53875;SDS011;39789;53.216;5.624;2023-04-01T20:26:35;18.05;;;5.47;;
53875;SDS011;39789;53.216;5.624;2023-04-01T20:32:08;13.50;;;5.88;;
53875;SDS011;39789;53.216;5.624;2023-04-01T20:43:03;12.55;;;5.20;;
53875;SDS011;39789;53.216;5.624;2023-04-01T20:45:56;16.70;;;5.82;;
53875;SDS011;39789;53.216;5.624;2023-04-01T20:49:10;11.38;;;5.97;;
53875;SDS011;39789;53.216;5.624;2023-04-01T20:57:35;11.98;;;5.32;;
53875;SDS011;39789;53.216;5.624;2023-04-01T21:18:53;8.88;;;4.43;;
53875;SDS011;39789;53.216;5.624;2023-04-01T21:24:34;11.65;;;4.22;;
53875;SDS011;39789;53.216;5.624;2023-04-01T21:29:50;13.98;;;5.03;;
53875;SDS011;39789;53.216;5.624;2023-04-01T21:38:17;8.13;;;5.40;;
53875;SDS011;39789;53.216;5.624;2023-04-01T21:46:37;11.40;;;4.70;;
53875;SDS011;39789;53.216;5.624;2023-04-01T22:01:05;11.07;;;5.07;;
53875;SDS011;39789;53.216;5.624;2023-04-01T22:06:22;11.68;;;4.88;;
53875;SDS011;39789;53.216;5.624;2023-04-01T22:09:07;17.33;;;4.03;;
53875;SDS011;39789;53.216;5.624;2023-04-01T22:12:24;12.10;;;4.32;;
53875;SDS011;39789;53.216;5.624;2023-04-01T22:19:59;17.30;;;5.70;;
53875;SDS011;39789;53.216;5.624;2023-04-01T22:25:56;10.45;;;4.15;;
53875;SDS011;39789;53.216;5.624;2023-04-01T22:28:29;11.00;;;4.47;;
53875;SDS011;39789;53.216;5.624;2023-04-01T22:31:01;14.07;;;4.43;;
53875;SDS011;39789;53.216;5.624;2023-04-01T22:33:30;10.48;;;5.00;;
53875;SDS011;39789;53.216;5.624;2023-04-01T22:36:09;8.32;;;3.45;;
53875;SDS011;39789;53.216;5.624;2023-04-01T22:38:46;10.98;;;4.45;;
53875;SDS011;39789;53.216;5.624;2023-04-01T22:41:35;8.30;;;3.80;;
53875;SDS011;39789;53.216;5.624;2023-04-01T22:44:20;10.88;;;3.72;;
53875;SDS011;39789;53.216;5.624;2023-04-01T22:52:33;9.70;;;4.70;;
53875;SDS011;39789;53.216;5.624;2023-04-01T22:55:14;9.80;;;3.97;;
53875;SDS011;39789;53.216;5.624;2023-04-01T22:57:54;7.40;;;3.72;;
53875;SDS011;39789;53.216;5.624;2023-04-01T23:00:30;9.13;;;4.32;;
53875;SDS011;39789;53.216;5.624;2023-04-01T23:03:09;8.60;;;3.88;;
53875;SDS011;39789;53.216;5.624;2023-04-01T23:05:54;7.82;;;3.72;;
53875;SDS011;39789;53.216;5.624;2023-04-01T23:11:04;9.73;;;4.10;;
53875;SDS011;39789;53.216;5.624;2023-04-01T23:13:41;12.38;;;4.07;;
53875;SDS011;39789;53.216;5.624;2023-04-01T23:16:34;10.55;;;3.72;;
53875;SDS011;39789;53.216;5.624;2023-04-01T23:19:09;8.32;;;4.15;;
53875;SDS011;39789;53.216;5.624;2023-04-01T23:21:43;8.05;;;3.63;;
53875;SDS011;39789;53.216;5.624;2023-04-01T23:26:52;7.45;;;3.55;;
53875;SDS011;39789;53.216;5.624;2023-04-01T23:29:23;14.52;;;4.28;;
53875;SDS011;39789;53.216;5.624;2023-04-01T23:31:58;12.27;;;4.32;;
53875;SDS011;39789;53.216;5.624;2023-04-01T23:34:34;10.73;;;4.15;;
53875;SDS011;39789;53.216;5.624;2023-04-01T23:37:02;8.57;;;4.15;;
53875;SDS011;39789;53.216;5.624;2023-04-01T23:42:04;6.70;;;3.55;;
53875;SDS011;39789;53.216;5.624;2023-04-01T23:44:30;10.68;;;4.15;;
53875;SDS011;39789;53.216;5.624;2023-04-01T23:46:58;8.38;;;4.22;;
53875;SDS011;39789;53.216;5.624;2023-04-01T23:49:38;10.85;;;3.65;;
53875;SDS011;39789;53.216;5.624;2023-04-01T23:52:22;9.02;;;4.13;;
53875;SDS011;39789;53.216;5.624;2023-04-01T23:57:25;8.68;;;3.72;;
